메인 페이지
METAR-TAF:

METAR-TAF

공항 :

이라클리오, 그리스

위도: 35-20N, 경도: 025-11E, 고도: 37m

현재 날씨관측

예보는 15분 전, 14:20시(UTC)에 발표되었습니다.
서남서10kt
온도 14°C
습도 82%
기압 997 hPa
시정 10km 이상
고도 1600ft 상공 구름 조금, 타워링 적운.
고도 3000ft 상공 구름 많음
고도 8000ft 상공 구름 많음

METAR: LGIR 141420Z 25010KT 9999 FEW016TCU BKN030 BKN080 14/11 Q0997 NOSIG

시각: 16:35 (14:35 UTC)

예보

예보는 3 시간 35분 전, 11:00시(UTC)에 발표되었습니다.
예보 대상 시간: 14일 12시부터 15일 12시까지 (UTC)
20kt
시정 10km 이상
고도 2500ft 상공 구름 보통
고도 8000ft 상공 구름 보통
일시적
14일 12시부터 14일 16시까지 (UTC)
15kt, 순간 최대 풍속 25kt
확률 40% :
일시적
14일 12시부터 14일 18시까지 (UTC)
시정: 5000m
고도 1800ft 상공 구름 보통, 타워링 적운.
고도 2500ft 상공 구름 많음
고도 8000ft 상공 구름 많음
확률 30% :
일시적
14일 12시부터 14일 15시까지 (UTC)
시정: 3000m
고도 1000ft 상공 구름 보통
고도 1600ft 상공 구름 조금, 적란운.
고도 2000ft 상공 구름 많음
뇌우, 비
전환 중
14일 18시부터 14일 20시까지 (UTC)
서북서12kt
전환 중
15일 02시부터 15일 04시까지 (UTC)
12kt

TAF: LGIR 141100Z 1412/1512 18020KT 9999 SCT025 SCT080 TEMPO 1412/1416 19015G25KT PROB40 TEMPO 1412/1418 5000 RA SCT018TCU BKN025 BKN080 PROB30 TEMPO 1412/1415 3000 TSRA SCT010 FEW016CB BKN020 BECMG 1418/1420 30012KT BECMG 1502/1504 36012KT

4,000개 이상의 공항 관측 자료 및 예보 (METAR 및 TAF 보고).

지도상에서 검색 가능한 기상관측소가 노란 점과 빨간 점으로 표시되어 있습니다.

기상관측소 명을 보려면 표시 위로 마우스를 이동하세요.

날씨 관측과 예보를 보려면 클릭하세요.

지도 변경 : 확대하려면 엑스 표시가 있는 녹색 버튼, 축소하려면 빼기 표시가 있는 녹색 버튼, 다음 페이지의 지도를 보려면 녹색 화살표를 클릭하세요.


METAR-TAF: